Time;durP1;ratioP1;P1;durP2;ratioP2;P2;SDS_P1;SDS_P2;PMS_P1;PMS_P2;Temp;Humidity;BMP_temperature;BMP_pressure;BME280_temperature;BME280_humidity;BME280_pressure;Samples;Min_cycle;Max_cycle;Signal;HPM_P1;HPM_P2
2022/05/22 00:00:40;;;;;;;1999.90;999.90;;;;;;;;;;5109763;27;21379;-72
2022/05/22 00:03:08;;;;;;;1999.90;999.90;;;;;;;;;;5101622;27;20398;-72
2022/05/22 00:05:35;;;;;;;1999.90;999.90;;;;;;;;;;5108313;27;20371;-72
2022/05/22 00:08:05;;;;;;;1999.90;999.90;;;;;;;;;;5108566;27;20395;-72
2022/05/22 00:10:33;;;;;;;1999.90;999.90;;;;;;;;;;5101345;27;20422;-73
2022/05/22 00:13:01;;;;;;;1999.90;999.90;;;;;;;;;;5083946;27;20404;-72
2022/05/22 00:15:29;;;;;;;1999.90;999.90;;;;;;;;;;5104573;27;20398;-72
2022/05/22 00:17:57;;;;;;;1999.90;999.90;;;;;;;;;;5097702;27;20489;-72
2022/05/22 00:20:25;;;;;;;1999.90;999.90;;;;;;;;;;5097967;27;20374;-73
2022/05/22 00:22:52;;;;;;;1999.90;999.90;;;;;;;;;;5103244;27;20453;-71
2022/05/22 00:25:20;;;;;;;1999.90;999.90;;;;;;;;;;5098915;27;20850;-72
2022/05/22 00:27:47;;;;;;;1999.90;999.90;;;;;;;;;;5101966;27;20998;-72
2022/05/22 00:30:15;;;;;;;1999.90;999.90;;;;;;;;;;5102328;27;20391;-72
2022/05/22 00:32:45;;;;;;;1999.90;999.90;;;;;;;;;;5083795;28;20924;-72
2022/05/22 00:35:15;;;;;;;1999.90;999.90;;;;;;;;;;5096906;27;23910;-73
2022/05/22 00:37:42;;;;;;;1999.90;999.90;;;;;;;;;;5098394;27;20399;-72
2022/05/22 00:40:10;;;;;;;1999.90;999.90;;;;;;;;;;5098953;27;20396;-72
2022/05/22 00:42:38;;;;;;;1999.90;999.90;;;;;;;;;;5100833;27;20423;-72
2022/05/22 00:45:07;;;;;;;1999.90;999.90;;;;;;;;;;5098554;27;20640;-72
2022/05/22 00:47:34;;;;;;;1999.90;999.90;;;;;;;;;;5101085;27;20395;-73
2022/05/22 00:50:06;;;;;;;1999.90;999.90;;;;;;;;;;5107551;27;20437;-73
2022/05/22 00:52:37;;;;;;;1999.90;999.90;;;;;;;;;;5109818;27;20947;-73
2022/05/22 00:55:06;;;;;;;1999.90;999.90;;;;;;;;;;5103088;27;20475;-72
2022/05/22 00:57:36;;;;;;;1999.90;999.90;;;;;;;;;;5106640;27;20508;-72
2022/05/22 01:00:06;;;;;;;1999.90;999.90;;;;;;;;;;5106698;27;20410;-72
2022/05/22 01:05:16;;;;;;;1999.90;999.90;;;;;;;;;;5099086;27;20448;-72
2022/05/22 01:07:46;;;;;;;1999.90;999.90;;;;;;;;;;5108204;27;20536;-73
2022/05/22 01:10:13;;;;;;;1999.90;999.90;;;;;;;;;;5103709;27;20463;-73
2022/05/22 01:12:42;;;;;;;1999.90;999.90;;;;;;;;;;5104636;27;20403;-73
2022/05/22 01:15:10;;;;;;;1999.90;999.90;;;;;;;;;;5093826;27;20449;-73
2022/05/22 01:17:41;;;;;;;1999.90;999.90;;;;;;;;;;5086515;28;20395;-72
2022/05/22 01:20:11;;;;;;;1999.90;999.90;;;;;;;;;;5100420;27;20445;-73
2022/05/22 01:22:40;;;;;;;1999.90;999.90;;;;;;;;;;5103606;27;20473;-73
2022/05/22 01:25:08;;;;;;;1999.90;999.90;;;;;;;;;;5107698;27;20886;-73
2022/05/22 01:27:37;;;;;;;1999.90;999.90;;;;;;;;;;5082122;28;20398;-73
2022/05/22 01:30:26;;;;;;;1999.90;999.90;;;;;;;;;;5101351;27;20721;-72
2022/05/22 01:33:03;;;;;;;1999.90;999.90;;;;;;;;;;5104690;27;20912;-73
2022/05/22 01:35:31;;;;;;;1999.90;999.90;;;;;;;;;;5092500;27;20392;-72
2022/05/22 01:38:05;;;;;;;1999.90;999.90;;;;;;;;;;5105807;27;20375;-73
2022/05/22 01:40:37;;;;;;;1999.90;999.90;;;;;;;;;;5081949;28;21164;-73
2022/05/22 01:43:05;;;;;;;1999.90;999.90;;;;;;;;;;5105702;27;20414;-73
2022/05/22 01:45:35;;;;;;;1999.90;999.90;;;;;;;;;;5087691;28;20453;-73
2022/05/22 01:48:03;;;;;;;1999.90;999.90;;;;;;;;;;5095466;27;20818;-73
2022/05/22 01:50:44;;;;;;;1999.90;999.90;;;;;;;;;;5082318;28;20387;-73
2022/05/22 01:53:13;;;;;;;1999.90;999.90;;;;;;;;;;5105002;27;20889;-72
2022/05/22 01:55:42;;;;;;;1999.90;999.90;;;;;;;;;;5091906;28;20401;-72
2022/05/22 01:58:10;;;;;;;1999.90;999.90;;;;;;;;;;5091369;27;20396;-73
2022/05/22 02:00:40;;;;;;;1999.90;999.90;;;;;;;;;;5090606;27;21125;-72
2022/05/22 02:03:08;;;;;;;1999.90;999.90;;;;;;;;;;5098827;27;20456;-73
2022/05/22 02:05:36;;;;;;;1999.90;999.90;;;;;;;;;;5086849;28;20457;-74
2022/05/22 02:08:22;;;;;;;1999.90;999.90;;;;;;;;;;5105705;27;20460;-73
2022/05/22 02:10:54;;;;;;;1999.90;999.90;;;;;;;;;;5091861;28;20502;-73
2022/05/22 02:13:23;;;;;;;1999.90;999.90;;;;;;;;;;5112053;27;20549;-73
2022/05/22 02:15:51;;;;;;;1999.90;999.90;;;;;;;;;;5098027;27;21228;-73
2022/05/22 02:18:19;;;;;;;1999.90;999.90;;;;;;;;;;5111966;27;20403;-73
2022/05/22 02:20:47;;;;;;;1999.90;999.90;;;;;;;;;;5107997;27;20396;-73
2022/05/22 02:23:16;;;;;;;1999.90;999.90;;;;;;;;;;5090817;27;20409;-73
2022/05/22 02:25:44;;;;;;;1999.90;999.90;;;;;;;;;;5107796;27;20908;-73
2022/05/22 02:28:14;;;;;;;1999.90;999.90;;;;;;;;;;5107854;27;20436;-74
2022/05/22 02:30:43;;;;;;;1999.90;999.90;;;;;;;;;;5091342;28;20402;-73
2022/05/22 02:33:11;;;;;;;1999.90;999.90;;;;;;;;;;5110132;27;20488;-72
2022/05/22 02:35:44;;;;;;;1999.90;999.90;;;;;;;;;;5084869;28;20406;-73
2022/05/22 02:38:18;;;;;;;1999.90;999.90;;;;;;;;;;5105455;27;20860;-74
2022/05/22 02:40:50;;;;;;;1999.90;999.90;;;;;;;;;;5103380;27;20739;-74
2022/05/22 02:43:19;;;;;;;1999.90;999.90;;;;;;;;;;5090837;27;20964;-72
2022/05/22 02:45:52;;;;;;;1999.90;999.90;;;;;;;;;;5109815;27;20394;-72
2022/05/22 02:48:20;;;;;;;1999.90;999.90;;;;;;;;;;5101688;27;20441;-73
2022/05/22 02:51:04;;;;;;;1999.90;999.90;;;;;;;;;;5103510;27;20449;-73
2022/05/22 02:53:32;;;;;;;1999.90;999.90;;;;;;;;;;5079373;28;20430;-73
2022/05/22 02:56:16;;;;;;;1999.90;999.90;;;;;;;;;;5107601;27;20396;-73
2022/05/22 02:59:03;;;;;;;1999.90;999.90;;;;;;;;;;5106763;27;20904;-73
2022/05/22 03:01:39;;;;;;;1999.90;999.90;;;;;;;;;;5081161;28;20391;-73
2022/05/22 03:04:07;;;;;;;1999.90;999.90;;;;;;;;;;5081430;27;20983;-73
2022/05/22 03:06:41;;;;;;;1999.90;999.90;;;;;;;;;;5104897;27;20384;-73
2022/05/22 03:09:10;;;;;;;1999.90;999.90;;;;;;;;;;5116417;27;20407;-72
2022/05/22 03:11:38;;;;;;;1999.90;999.90;;;;;;;;;;5113409;27;20402;-73
2022/05/22 03:14:07;;;;;;;1999.90;999.90;;;;;;;;;;5105398;27;20442;-71
2022/05/22 03:16:35;;;;;;;1999.90;999.90;;;;;;;;;;5101795;27;20401;-73
2022/05/22 03:19:13;;;;;;;1999.90;999.90;;;;;;;;;;5087309;27;20393;-72
2022/05/22 03:21:41;;;;;;;1999.90;999.90;;;;;;;;;;5105952;27;20388;-72
2022/05/22 03:24:09;;;;;;;1999.90;999.90;;;;;;;;;;5111827;27;20429;-73
2022/05/22 03:26:38;;;;;;;1999.90;999.90;;;;;;;;;;5108675;27;20469;-72
2022/05/22 03:29:06;;;;;;;1999.90;999.90;;;;;;;;;;5103385;27;20403;-71
2022/05/22 03:31:34;;;;;;;1999.90;999.90;;;;;;;;;;5102694;27;20920;-73
2022/05/22 03:34:02;;;;;;;1999.90;999.90;;;;;;;;;;5081555;27;20399;-74
2022/05/22 03:36:29;;;;;;;1999.90;999.90;;;;;;;;;;5096796;27;20411;-73
2022/05/22 03:38:57;;;;;;;1999.90;999.90;;;;;;;;;;5080600;28;20487;-71
2022/05/22 03:41:24;;;;;;;1999.90;999.90;;;;;;;;;;5101846;27;20974;-73
2022/05/22 03:43:52;;;;;;;1999.90;999.90;;;;;;;;;;5113410;27;20405;-73
2022/05/22 03:46:35;;;;;;;1999.90;999.90;;;;;;;;;;5117796;27;20475;-73
2022/05/22 03:49:03;;;;;;;1999.90;999.90;;;;;;;;;;5081248;28;20451;-73
2022/05/22 03:51:35;;;;;;;1999.90;999.90;;;;;;;;;;5106946;27;20457;-73
2022/05/22 03:54:04;;;;;;;1999.90;999.90;;;;;;;;;;5098351;27;20407;-73
2022/05/22 03:56:38;;;;;;;1999.90;999.90;;;;;;;;;;5102390;27;20412;-73
2022/05/22 03:59:20;;;;;;;1999.90;999.90;;;;;;;;;;5099619;27;20506;-73
2022/05/22 04:01:50;;;;;;;1999.90;999.90;;;;;;;;;;5086281;28;20398;-73
2022/05/22 04:04:19;;;;;;;1999.90;999.90;;;;;;;;;;5094385;27;20405;-73
2022/05/22 04:06:47;;;;;;;1999.90;999.90;;;;;;;;;;5108308;27;20391;-72
2022/05/22 04:09:21;;;;;;;1999.90;999.90;;;;;;;;;;5101744;27;20411;-73
2022/05/22 04:12:06;;;;;;;1999.90;999.90;;;;;;;;;;5108661;27;20387;-73
2022/05/22 04:14:35;;;;;;;1999.90;999.90;;;;;;;;;;5103084;27;20404;-73
2022/05/22 04:17:08;;;;;;;1999.90;999.90;;;;;;;;;;5087842;27;20390;-74
2022/05/22 04:19:36;;;;;;;1999.90;999.90;;;;;;;;;;5087330;28;20402;-73
2022/05/22 04:22:06;;;;;;;1999.90;999.90;;;;;;;;;;5101631;27;20398;-72
2022/05/22 04:27:23;;;;;;;1999.90;999.90;;;;;;;;;;5084938;27;20907;-73
2022/05/22 04:29:52;;;;;;;1999.90;999.90;;;;;;;;;;5086505;28;20407;-72
2022/05/22 04:32:23;;;;;;;1999.90;999.90;;;;;;;;;;5092173;27;20400;-73
2022/05/22 04:34:53;;;;;;;1999.90;999.90;;;;;;;;;;5106908;27;20465;-72
2022/05/22 04:37:21;;;;;;;1999.90;999.90;;;;;;;;;;5103816;27;20392;-73
2022/05/22 04:39:54;;;;;;;1999.90;999.90;;;;;;;;;;5081071;28;20425;-73
2022/05/22 04:42:22;;;;;;;1999.90;999.90;;;;;;;;;;5087486;27;20409;-72
2022/05/22 04:44:50;;;;;;;1999.90;999.90;;;;;;;;;;5092629;28;20406;-73
2022/05/22 04:47:20;;;;;;;1999.90;999.90;;;;;;;;;;5106008;27;20457;-73
2022/05/22 04:50:08;;;;;;;1999.90;999.90;;;;;;;;;;5106752;27;20386;-73
2022/05/22 04:52:56;;;;;;;1999.90;999.90;;;;;;;;;;5090681;28;20390;-73
2022/05/22 04:55:24;;;;;;;1999.90;999.90;;;;;;;;;;5088521;27;20486;-74
2022/05/22 04:57:52;;;;;;;1999.90;999.90;;;;;;;;;;5105231;27;20810;-73
2022/05/22 05:00:19;;;;;;;1999.90;999.90;;;;;;;;;;5102243;27;20436;-73
2022/05/22 05:03:05;;;;;;;1999.90;999.90;;;;;;;;;;5078868;28;20384;-73
2022/05/22 05:05:34;;;;;;;1999.90;999.90;;;;;;;;;;5106922;27;20465;-73
2022/05/22 05:08:02;;;;;;;1999.90;999.90;;;;;;;;;;5091109;28;20447;-73
2022/05/22 05:10:55;;;;;;;1999.90;999.90;;;;;;;;;;5104993;27;20469;-73
2022/05/22 05:13:28;;;;;;;1999.90;999.90;;;;;;;;;;5085986;27;20392;-73
2022/05/22 05:16:00;;;;;;;1999.90;999.90;;;;;;;;;;5089503;28;20410;-73
2022/05/22 05:18:33;;;;;;;1999.90;999.90;;;;;;;;;;5094058;27;20391;-72
2022/05/22 05:21:04;;;;;;;1999.90;999.90;;;;;;;;;;5104417;27;20410;-73
2022/05/22 05:23:33;;;;;;;1999.90;999.90;;;;;;;;;;5094059;27;20407;-73
2022/05/22 05:26:09;;;;;;;1999.90;999.90;;;;;;;;;;5107385;27;20454;-73
2022/05/22 05:28:37;;;;;;;1999.90;999.90;;;;;;;;;;5119223;27;20419;-73
2022/05/22 05:31:07;;;;;;;1999.90;999.90;;;;;;;;;;5106142;27;20403;-74
2022/05/22 05:33:37;;;;;;;1999.90;999.90;;;;;;;;;;5089356;28;20801;-72
2022/05/22 05:36:25;;;;;;;1999.90;999.90;;;;;;;;;;5099389;27;20430;-73
2022/05/22 05:39:11;;;;;;;1999.90;999.90;;;;;;;;;;5099669;27;20948;-73
2022/05/22 05:41:55;;;;;;;1999.90;999.90;;;;;;;;;;5073096;28;20408;-73
2022/05/22 05:44:28;;;;;;;1999.90;999.90;;;;;;;;;;5096526;27;20506;-72
2022/05/22 05:47:15;;;;;;;1999.90;999.90;;;;;;;;;;5091920;27;20504;-73
2022/05/22 05:50:03;;;;;;;1999.90;999.90;;;;;;;;;;5072651;28;20398;-74
2022/05/22 05:52:51;;;;;;;1999.90;999.90;;;;;;;;;;5090466;27;20882;-74
2022/05/22 05:55:37;;;;;;;1999.90;999.90;;;;;;;;;;5089847;27;20498;-74
2022/05/22 05:58:48;;;;;;;1999.90;999.90;;;;;;;;;;5090371;27;21043;-74
2022/05/22 06:01:25;;;;;;;1999.90;999.90;;;;;;;;;;5078987;27;20404;-73
2022/05/22 06:03:52;;;;;;;1999.90;999.90;;;;;;;;;;5089909;27;20412;-74
2022/05/22 06:06:21;;;;;;;1999.90;999.90;;;;;;;;;;5089597;27;20892;-75
2022/05/22 06:08:50;;;;;;;1999.90;999.90;;;;;;;;;;5089954;27;20471;-73
2022/05/22 06:11:30;;;;;;;1999.90;999.90;;;;;;;;;;5092101;27;20391;-74
2022/05/22 06:14:04;;;;;;;1999.90;999.90;;;;;;;;;;5078424;27;20425;-73
2022/05/22 06:16:31;;;;;;;1999.90;999.90;;;;;;;;;;5088979;27;20397;-73
2022/05/22 06:19:03;;;;;;;1999.90;999.90;;;;;;;;;;5090310;27;20953;-73
2022/05/22 06:21:30;;;;;;;1999.90;999.90;;;;;;;;;;5093286;27;20412;-74
2022/05/22 06:24:00;;;;;;;1999.90;999.90;;;;;;;;;;5094809;27;20419;-74
2022/05/22 06:26:55;;;;;;;1999.90;999.90;;;;;;;;;;5076139;28;20393;-73
2022/05/22 06:29:28;;;;;;;1999.90;999.90;;;;;;;;;;5095498;27;20400;-74
2022/05/22 06:32:17;;;;;;;1999.90;999.90;;;;;;;;;;5093027;27;20391;-72
2022/05/22 06:34:56;;;;;;;1999.90;999.90;;;;;;;;;;5092797;27;20401;-73
2022/05/22 06:37:42;;;;;;;1999.90;999.90;;;;;;;;;;5075338;28;20401;-74
2022/05/22 06:40:29;;;;;;;1999.90;999.90;;;;;;;;;;5093923;27;20918;-74
2022/05/22 06:43:22;;;;;;;1999.90;999.90;;;;;;;;;;5091952;27;20416;-73
2022/05/22 06:46:15;;;;;;;1999.90;999.90;;;;;;;;;;5093263;27;20802;-74
2022/05/22 06:49:02;;;;;;;1999.90;999.90;;;;;;;;;;5090924;27;20400;-74
2022/05/22 06:51:48;;;;;;;1999.90;999.90;;;;;;;;;;5092022;27;20409;-74
2022/05/22 06:54:30;;;;;;;1999.90;999.90;;;;;;;;;;5074840;27;20932;-74
2022/05/22 06:57:16;;;;;;;1999.90;999.90;;;;;;;;;;5077399;27;20958;-74
2022/05/22 07:00:05;;;;;;;1999.90;999.90;;;;;;;;;;5104573;27;20391;-73
2022/05/22 07:02:48;;;;;;;1999.90;999.90;;;;;;;;;;5114138;27;20412;-74
2022/05/22 07:05:47;;;;;;;1999.90;999.90;;;;;;;;;;5102294;27;20405;-74
2022/05/22 07:08:32;;;;;;;1999.90;999.90;;;;;;;;;;5089706;28;20924;-75
2022/05/22 07:14:30;;;;;;;1999.90;999.90;;;;;;;;;;5106176;27;20530;-74
2022/05/22 07:17:10;;;;;;;1999.90;999.90;;;;;;;;;;5105326;27;20397;-75
2022/05/22 07:19:46;;;;;;;1999.90;999.90;;;;;;;;;;5098946;27;20407;-75
2022/05/22 07:22:33;;;;;;;1999.90;999.90;;;;;;;;;;5104941;27;20394;-75
2022/05/22 07:25:20;;;;;;;1999.90;999.90;;;;;;;;;;5085468;27;20399;-74
2022/05/22 07:28:06;;;;;;;1999.90;999.90;;;;;;;;;;5107561;27;20912;-74
2022/05/22 07:30:47;;;;;;;1999.90;999.90;;;;;;;;;;5101465;27;20391;-75
2022/05/22 07:33:42;;;;;;;1999.90;999.90;;;;;;;;;;5103493;27;20403;-75
2022/05/22 07:36:16;;;;;;;1999.90;999.90;;;;;;;;;;5105703;27;20427;-75
2022/05/22 07:39:02;;;;;;;1999.90;999.90;;;;;;;;;;5101321;27;20414;-75
2022/05/22 07:41:53;;;;;;;1999.90;999.90;;;;;;;;;;5086846;28;20403;-75
2022/05/22 07:44:40;;;;;;;1999.90;999.90;;;;;;;;;;5101989;27;20932;-76
2022/05/22 07:47:16;;;;;;;1999.90;999.90;;;;;;;;;;5111891;27;20488;-77
2022/05/22 07:52:54;;;;;;;1999.90;999.90;;;;;;;;;;5124685;27;20862;-77
2022/05/22 07:55:40;;;;;;;1999.90;999.90;;;;;;;;;;5108470;27;20391;-76
2022/05/22 07:58:11;;;;;;;1999.90;999.90;;;;;;;;;;5107152;27;20397;-77
2022/05/22 08:00:55;;;;;;;1999.90;999.90;;;;;;;;;;5094505;27;20389;-77
2022/05/22 08:04:02;;;;;;;1999.90;999.90;;;;;;;;;;5113051;27;20390;-76
2022/05/22 08:06:48;;;;;;;1999.90;999.90;;;;;;;;;;5106724;27;20437;-75
2022/05/22 08:09:29;;;;;;;1999.90;999.90;;;;;;;;;;5089748;27;20403;-74
2022/05/22 08:11:56;;;;;;;1999.90;999.90;;;;;;;;;;5091319;27;20379;-75
2022/05/22 08:14:24;;;;;;;1999.90;999.90;;;;;;;;;;5087778;27;20403;-75
2022/05/22 08:16:54;;;;;;;1999.90;999.90;;;;;;;;;;5084551;28;20397;-75
2022/05/22 08:19:23;;;;;;;1999.90;999.90;;;;;;;;;;5101323;27;20408;-75
2022/05/22 08:22:09;;;;;;;1999.90;999.90;;;;;;;;;;5101744;27;20458;-75
2022/05/22 08:24:55;;;;;;;1999.90;999.90;;;;;;;;;;5105525;27;20545;-75
2022/05/22 08:27:27;;;;;;;1999.90;999.90;;;;;;;;;;5087651;27;20431;-75
2022/05/22 08:29:55;;;;;;;1999.90;999.90;;;;;;;;;;5087846;27;20396;-75
2022/05/22 08:32:25;;;;;;;1999.90;999.90;;;;;;;;;;5101247;27;20384;-76
2022/05/22 08:34:55;;;;;;;1999.90;999.90;;;;;;;;;;5102709;27;20411;-78
2022/05/22 08:37:23;;;;;;;1999.90;999.90;;;;;;;;;;5094943;27;20503;-75
2022/05/22 08:39:52;;;;;;;1999.90;999.90;;;;;;;;;;5102745;27;20917;-75
2022/05/22 08:42:21;;;;;;;1999.90;999.90;;;;;;;;;;5101131;27;20399;-75
2022/05/22 08:44:50;;;;;;;1999.90;999.90;;;;;;;;;;5102668;27;20542;-75
2022/05/22 08:47:19;;;;;;;1999.90;999.90;;;;;;;;;;5096558;27;20395;-75
2022/05/22 08:49:48;;;;;;;1999.90;999.90;;;;;;;;;;5100442;27;20395;-76
2022/05/22 08:52:21;;;;;;;1999.90;999.90;;;;;;;;;;5107019;27;20414;-77
2022/05/22 08:54:51;;;;;;;1999.90;999.90;;;;;;;;;;5101043;27;20411;-76
2022/05/22 09:00:07;;;;;;;1999.90;999.90;;;;;;;;;;5099411;27;20399;-76
2022/05/22 09:02:36;;;;;;;1999.90;999.90;;;;;;;;;;5100948;27;20422;-75
2022/05/22 09:05:07;;;;;;;1999.90;999.90;;;;;;;;;;5122805;27;20391;-75
2022/05/22 09:07:39;;;;;;;1999.90;999.90;;;;;;;;;;5082268;28;20448;-75
2022/05/22 09:10:09;;;;;;;1999.90;999.90;;;;;;;;;;5105136;27;20403;-76
2022/05/22 09:12:59;;;;;;;1999.90;999.90;;;;;;;;;;5099892;27;20490;-75
2022/05/22 09:15:49;;;;;;;1999.90;999.90;;;;;;;;;;5095092;27;20488;-74
2022/05/22 09:18:23;;;;;;;1999.90;999.90;;;;;;;;;;5105510;27;20398;-75
2022/05/22 09:20:55;;;;;;;1999.90;999.90;;;;;;;;;;5080548;28;20399;-75
2022/05/22 09:23:29;;;;;;;1999.90;999.90;;;;;;;;;;5115627;27;20383;-75
2022/05/22 09:26:00;;;;;;;1999.90;999.90;;;;;;;;;;5106124;27;20399;-75
2022/05/22 09:28:32;;;;;;;1999.90;999.90;;;;;;;;;;5103020;27;20886;-74
2022/05/22 09:31:10;;;;;;;1999.90;999.90;;;;;;;;;;5103046;27;20415;-74
2022/05/22 09:33:41;;;;;;;1999.90;999.90;;;;;;;;;;5106150;27;20804;-75
2022/05/22 09:36:14;;;;;;;1999.90;999.90;;;;;;;;;;5100045;27;20447;-75
2022/05/22 09:38:53;;;;;;;1999.90;999.90;;;;;;;;;;5093778;27;20506;-75
2022/05/22 09:41:25;;;;;;;1999.90;999.90;;;;;;;;;;5091043;27;20399;-75
2022/05/22 09:44:06;;;;;;;1999.90;999.90;;;;;;;;;;5088606;27;21729;-74
2022/05/22 09:47:01;;;;;;;1999.90;999.90;;;;;;;;;;5114121;27;20387;-74
2022/05/22 09:49:38;;;;;;;1999.90;999.90;;;;;;;;;;5102854;27;20418;-77
2022/05/22 09:52:10;;;;;;;1999.90;999.90;;;;;;;;;;5100153;27;20422;-76
2022/05/22 09:54:44;;;;;;;1999.90;999.90;;;;;;;;;;5110840;27;21246;-76
2022/05/22 09:57:38;;;;;;;1999.90;999.90;;;;;;;;;;5103260;27;20397;-76
2022/05/22 10:00:08;;;;;;;1999.90;999.90;;;;;;;;;;5105846;27;20561;-77
2022/05/22 10:02:47;;;;;;;1999.90;999.90;;;;;;;;;;5105285;27;20407;-76
2022/05/22 10:05:21;;;;;;;1999.90;999.90;;;;;;;;;;5108885;27;20393;-76
2022/05/22 10:07:51;;;;;;;1999.90;999.90;;;;;;;;;;5107143;27;20379;-77
2022/05/22 10:10:22;;;;;;;1999.90;999.90;;;;;;;;;;5089355;27;20390;-76
2022/05/22 10:12:54;;;;;;;1999.90;999.90;;;;;;;;;;5105881;27;20468;-76
2022/05/22 10:15:43;;;;;;;1999.90;999.90;;;;;;;;;;5109879;27;21259;-77
2022/05/22 10:18:28;;;;;;;1999.90;999.90;;;;;;;;;;5102006;27;20471;-77
2022/05/22 10:21:01;;;;;;;1999.90;999.90;;;;;;;;;;5121124;27;20389;-76
2022/05/22 10:23:45;;;;;;;1999.90;999.90;;;;;;;;;;5090033;28;20552;-77
2022/05/22 10:26:17;;;;;;;1999.90;999.90;;;;;;;;;;5112936;27;20395;-77
2022/05/22 10:28:48;;;;;;;1999.90;999.90;;;;;;;;;;5105693;27;20499;-76
2022/05/22 10:31:18;;;;;;;1999.90;999.90;;;;;;;;;;5104747;27;20395;-77
2022/05/22 10:33:50;;;;;;;1999.90;999.90;;;;;;;;;;5105213;27;20411;-76
2022/05/22 10:36:19;;;;;;;1999.90;999.90;;;;;;;;;;5112146;27;20390;-76
2022/05/22 10:38:56;;;;;;;1999.90;999.90;;;;;;;;;;5107829;27;20395;-77
2022/05/22 10:44:15;;;;;;;1999.90;999.90;;;;;;;;;;5103923;27;20432;-76
2022/05/22 10:46:50;;;;;;;1999.90;999.90;;;;;;;;;;5095621;27;20826;-77
2022/05/22 10:49:18;;;;;;;1999.90;999.90;;;;;;;;;;5102834;27;20399;-77
2022/05/22 10:51:54;;;;;;;1999.90;999.90;;;;;;;;;;5100874;27;20504;-77
2022/05/22 10:54:23;;;;;;;1999.90;999.90;;;;;;;;;;5099918;27;20893;-77
2022/05/22 10:57:07;;;;;;;1999.90;999.90;;;;;;;;;;5099105;27;21044;-76
2022/05/22 10:59:35;;;;;;;1999.90;999.90;;;;;;;;;;5101753;27;20408;-75
2022/05/22 11:02:04;;;;;;;1999.90;999.90;;;;;;;;;;5100797;27;20560;-72
2022/05/22 11:04:37;;;;;;;1999.90;999.90;;;;;;;;;;5104259;27;20478;-72
2022/05/22 11:07:05;;;;;;;1999.90;999.90;;;;;;;;;;5105670;27;20383;-72
2022/05/22 11:09:34;;;;;;;1999.90;999.90;;;;;;;;;;5097161;27;21292;-73
2022/05/22 11:12:08;;;;;;;1999.90;999.90;;;;;;;;;;5097264;27;20438;-73
2022/05/22 11:14:36;;;;;;;1999.90;999.90;;;;;;;;;;5092625;27;20435;-72
2022/05/22 11:17:11;;;;;;;1999.90;999.90;;;;;;;;;;5094606;27;20407;-73
2022/05/22 11:19:40;;;;;;;1999.90;999.90;;;;;;;;;;5092002;27;20402;-74
2022/05/22 11:22:15;;;;;;;1999.90;999.90;;;;;;;;;;5092540;27;20467;-73
2022/05/22 11:24:46;;;;;;;1999.90;999.90;;;;;;;;;;5087943;27;20456;-73
2022/05/22 11:27:21;;;;;;;1999.90;999.90;;;;;;;;;;5091484;27;20910;-73
2022/05/22 11:29:55;;;;;;;1999.90;999.90;;;;;;;;;;5093191;27;20399;-72
2022/05/22 11:32:31;;;;;;;1999.90;999.90;;;;;;;;;;5091508;27;20426;-73
2022/05/22 11:35:06;;;;;;;1999.90;999.90;;;;;;;;;;5095426;27;20422;-73
2022/05/22 11:37:41;;;;;;;1999.90;999.90;;;;;;;;;;5090295;27;20398;-73
2022/05/22 11:40:19;;;;;;;1999.90;999.90;;;;;;;;;;5074226;27;20523;-73
2022/05/22 11:42:50;;;;;;;1999.90;999.90;;;;;;;;;;5091511;27;20423;-73
2022/05/22 11:45:21;;;;;;;1999.90;999.90;;;;;;;;;;5092958;27;20416;-74
2022/05/22 11:47:58;;;;;;;1999.90;999.90;;;;;;;;;;5093635;27;20419;-74
2022/05/22 11:50:30;;;;;;;1999.90;999.90;;;;;;;;;;5093260;27;20768;-73
2022/05/22 11:53:13;;;;;;;1999.90;999.90;;;;;;;;;;5093905;27;20407;-73
2022/05/22 11:55:47;;;;;;;1999.90;999.90;;;;;;;;;;5089367;27;20481;-73
2022/05/22 11:58:22;;;;;;;1999.90;999.90;;;;;;;;;;5092748;27;20818;-74
2022/05/22 12:00:56;;;;;;;1999.90;999.90;;;;;;;;;;5090919;27;20387;-72
2022/05/22 12:03:36;;;;;;;1999.90;999.90;;;;;;;;;;5092960;27;21431;-73
2022/05/22 12:06:08;;;;;;;1999.90;999.90;;;;;;;;;;5083901;27;20456;-73
2022/05/22 12:08:46;;;;;;;1999.90;999.90;;;;;;;;;;5095734;27;20893;-73
2022/05/22 12:11:17;;;;;;;1999.90;999.90;;;;;;;;;;5098017;27;20468;-73
2022/05/22 12:13:50;;;;;;;1999.90;999.90;;;;;;;;;;5097119;27;21488;-73
2022/05/22 12:16:20;;;;;;;1999.90;999.90;;;;;;;;;;5097102;27;21429;-72
2022/05/22 12:18:55;;;;;;;1999.90;999.90;;;;;;;;;;5098941;27;20387;-73
2022/05/22 12:21:27;;;;;;;1999.90;999.90;;;;;;;;;;5099456;27;20399;-72
2022/05/22 12:23:57;;;;;;;1999.90;999.90;;;;;;;;;;5079966;28;20384;-73
2022/05/22 12:26:26;;;;;;;1999.90;999.90;;;;;;;;;;5098355;27;21405;-73
2022/05/22 12:28:57;;;;;;;1999.90;999.90;;;;;;;;;;5092438;27;20429;-74
2022/05/22 12:31:27;;;;;;;1999.90;999.90;;;;;;;;;;5110753;27;20411;-73
2022/05/22 12:33:55;;;;;;;1999.90;999.90;;;;;;;;;;5095748;27;20391;-73
2022/05/22 12:36:25;;;;;;;1999.90;999.90;;;;;;;;;;5096971;27;20506;-73
2022/05/22 12:38:57;;;;;;;1999.90;999.90;;;;;;;;;;5097756;27;20411;-73
2022/05/22 12:41:30;;;;;;;1999.90;999.90;;;;;;;;;;5094992;27;20400;-74
2022/05/22 12:43:59;;;;;;;1999.90;999.90;;;;;;;;;;5097668;27;20908;-73
2022/05/22 12:46:27;;;;;;;1999.90;999.90;;;;;;;;;;5097538;27;20475;-72
2022/05/22 12:49:05;;;;;;;1999.90;999.90;;;;;;;;;;5096738;27;33718;-75
2022/05/22 12:51:34;;;;;;;1999.90;999.90;;;;;;;;;;5098407;27;20423;-76
2022/05/22 12:54:10;;;;;;;1999.90;999.90;;;;;;;;;;5098018;27;20746;-76
2022/05/22 12:56:39;;;;;;;1999.90;999.90;;;;;;;;;;5093850;27;20902;-76
2022/05/22 12:59:18;;;;;;;1999.90;999.90;;;;;;;;;;5095095;27;20462;-76
2022/05/22 13:01:48;;;;;;;1999.90;999.90;;;;;;;;;;5097628;27;20407;-75
2022/05/22 13:04:28;;;;;;;1999.90;999.90;;;;;;;;;;5097852;27;20403;-76
2022/05/22 13:06:58;;;;;;;1999.90;999.90;;;;;;;;;;5094071;27;20402;-74
2022/05/22 13:09:34;;;;;;;1999.90;999.90;;;;;;;;;;5095791;27;20375;-73
2022/05/22 13:12:04;;;;;;;1999.90;999.90;;;;;;;;;;5094518;27;21063;-74
2022/05/22 13:14:37;;;;;;;1999.90;999.90;;;;;;;;;;5094760;27;20905;-75
2022/05/22 13:17:05;;;;;;;1999.90;999.90;;;;;;;;;;5096422;27;20496;-73
2022/05/22 13:19:47;;;;;;;1999.90;999.90;;;;;;;;;;5096504;27;20407;-74
2022/05/22 13:22:25;;;;;;;1999.90;999.90;;;;;;;;;;5095729;27;20395;-75
2022/05/22 13:24:53;;;;;;;1999.90;999.90;;;;;;;;;;5095558;27;20479;-77
2022/05/22 13:27:23;;;;;;;1999.90;999.90;;;;;;;;;;5113300;27;21394;-75
2022/05/22 13:29:54;;;;;;;1999.90;999.90;;;;;;;;;;5097191;27;21038;-75
2022/05/22 13:32:27;;;;;;;1999.90;999.90;;;;;;;;;;5095018;27;20359;-76
2022/05/22 13:34:55;;;;;;;1999.90;999.90;;;;;;;;;;5096306;27;20387;-76
2022/05/22 13:37:26;;;;;;;1999.90;999.90;;;;;;;;;;5095537;27;22242;-77
2022/05/22 13:39:57;;;;;;;1999.90;999.90;;;;;;;;;;5093117;27;20403;-77
2022/05/22 13:42:45;;;;;;;1999.90;999.90;;;;;;;;;;5097398;27;20418;-77
2022/05/22 13:45:23;;;;;;;1999.90;999.90;;;;;;;;;;5099250;27;20947;-76
2022/05/22 13:48:03;;;;;;;1999.90;999.90;;;;;;;;;;5096680;27;20503;-76
2022/05/22 13:53:33;;;;;;;1999.90;999.90;;;;;;;;;;5086527;27;20487;-74
2022/05/22 13:56:01;;;;;;;1999.90;999.90;;;;;;;;;;5096352;27;20519;-74
2022/05/22 13:58:30;;;;;;;1999.90;999.90;;;;;;;;;;5090789;27;20482;-72
2022/05/22 14:01:02;;;;;;;1999.90;999.90;;;;;;;;;;5095637;27;20531;-74
2022/05/22 14:03:36;;;;;;;1999.90;999.90;;;;;;;;;;5095901;27;20410;-73
2022/05/22 14:06:04;;;;;;;1999.90;999.90;;;;;;;;;;5093739;27;20439;-74
2022/05/22 14:08:42;;;;;;;1999.90;999.90;;;;;;;;;;5091461;27;20426;-72
2022/05/22 14:11:11;;;;;;;1999.90;999.90;;;;;;;;;;5094557;27;20445;-72
2022/05/22 14:13:49;;;;;;;1999.90;999.90;;;;;;;;;;5095252;27;20384;-72
2022/05/22 14:16:22;;;;;;;1999.90;999.90;;;;;;;;;;5099146;27;21249;-72
2022/05/22 14:18:58;;;;;;;1999.90;999.90;;;;;;;;;;5097687;27;20418;-72
2022/05/22 14:21:25;;;;;;;1999.90;999.90;;;;;;;;;;5093566;27;20523;-72
2022/05/22 14:26:39;;;;;;;1999.90;999.90;;;;;;;;;;5095207;27;20375;-73
2022/05/22 14:29:08;;;;;;;1999.90;999.90;;;;;;;;;;5088939;27;20415;-72
2022/05/22 14:31:44;;;;;;;1999.90;999.90;;;;;;;;;;5091115;27;20680;-73
2022/05/22 14:34:18;;;;;;;1999.90;999.90;;;;;;;;;;5078841;27;21268;-72
2022/05/22 14:36:49;;;;;;;1999.90;999.90;;;;;;;;;;5088575;27;20391;-72
2022/05/22 14:39:17;;;;;;;1999.90;999.90;;;;;;;;;;5092618;27;20446;-72
2022/05/22 14:41:45;;;;;;;1999.90;999.90;;;;;;;;;;5091322;27;20422;-73